createdAt,value
2019-06-26T00:00:38.909Z,64.50
2019-06-26T00:03:08.282Z,64.70
2019-06-26T00:05:37.653Z,65.00
2019-06-26T00:08:07.095Z,65.30
2019-06-26T00:10:36.525Z,65.30
2019-06-26T00:13:05.896Z,65.70
2019-06-26T00:15:35.220Z,65.80
2019-06-26T00:18:04.862Z,66.10
2019-06-26T00:20:34.186Z,66.20
2019-06-26T00:23:03.564Z,66.20
2019-06-26T00:25:33.109Z,66.40
2019-06-26T00:28:03.601Z,66.70
2019-06-26T00:30:32.922Z,66.70
2019-06-26T00:33:02.264Z,66.90
2019-06-26T00:35:31.583Z,67.10
2019-06-26T00:38:00.913Z,67.30
2019-06-26T00:40:30.235Z,67.30
2019-06-26T00:42:59.567Z,67.40
2019-06-26T00:45:28.953Z,67.60
2019-06-26T00:47:58.321Z,67.80
2019-06-26T00:50:29.120Z,68.20
2019-06-26T00:52:58.453Z,69.00
2019-06-26T00:55:27.788Z,68.40
2019-06-26T00:57:57.125Z,68.50
2019-06-26T01:00:32.441Z,68.90
2019-06-26T01:03:01.774Z,69.30
2019-06-26T01:05:31.102Z,69.20
2019-06-26T01:08:00.450Z,69.50
2019-06-26T01:10:29.830Z,69.90
2019-06-26T01:12:59.182Z,70.10
2019-06-26T01:15:28.773Z,70.30
2019-06-26T01:17:58.191Z,70.50
2019-06-26T01:20:27.583Z,70.90
2019-06-26T01:22:56.926Z,71.10
2019-06-26T01:25:26.261Z,71.20
2019-06-26T01:27:55.603Z,71.60
2019-06-26T01:30:25.094Z,71.50
2019-06-26T01:32:54.505Z,71.80
2019-06-26T01:35:23.838Z,72.00
2019-06-26T01:37:54.154Z,72.30
2019-06-26T01:40:23.495Z,72.50
2019-06-26T01:42:52.848Z,72.60
2019-06-26T01:45:22.171Z,72.70
2019-06-26T01:47:51.532Z,72.90
2019-06-26T01:50:21.091Z,73.10
2019-06-26T01:52:50.441Z,73.10
2019-06-26T01:55:19.781Z,73.20
2019-06-26T01:57:49.122Z,73.30
2019-06-26T02:00:19.584Z,73.30
2019-06-26T02:02:48.929Z,73.20
2019-06-26T02:05:18.255Z,73.10
2019-06-26T02:07:47.614Z,73.20
2019-06-26T02:10:17.177Z,73.20
2019-06-26T02:12:47.484Z,73.20
2019-06-26T02:15:16.999Z,73.40
2019-06-26T02:17:46.397Z,73.60
2019-06-26T02:20:15.839Z,73.70
2019-06-26T02:22:45.197Z,73.80
2019-06-26T02:25:14.585Z,74.00
2019-06-26T02:27:43.931Z,74.20
2019-06-26T02:30:13.593Z,74.40
2019-06-26T02:32:42.932Z,74.60
2019-06-26T02:35:12.396Z,74.60
2019-06-26T02:37:41.726Z,74.60
2019-06-26T02:40:11.608Z,75.00
2019-06-26T02:42:41.010Z,75.00
2019-06-26T02:45:10.773Z,75.30
2019-06-26T02:47:40.128Z,75.30
2019-06-26T02:50:12.328Z,75.50
2019-06-26T02:52:41.721Z,76.00
2019-06-26T02:55:11.211Z,76.30
2019-06-26T02:57:40.547Z,76.30
2019-06-26T03:00:09.894Z,76.90
2019-06-26T03:02:40.886Z,76.80
2019-06-26T03:05:10.290Z,77.10
2019-06-26T03:07:39.636Z,77.50
2019-06-26T03:10:09.310Z,77.70
2019-06-26T03:12:38.657Z,77.70
2019-06-26T03:15:09.678Z,77.90
2019-06-26T03:17:54.221Z,78.30
2019-06-26T03:20:10.525Z,78.30
2019-06-26T03:22:39.869Z,78.40
2019-06-26T03:25:11.056Z,78.50
2019-06-26T03:27:40.383Z,78.30
2019-06-26T03:30:09.912Z,78.30
2019-06-26T03:32:39.310Z,78.40
2019-06-26T03:35:08.871Z,78.60
2019-06-26T03:37:38.274Z,78.40
2019-06-26T03:40:07.961Z,78.50
2019-06-26T03:42:37.603Z,78.70
2019-06-26T03:45:07.596Z,78.60
2019-06-26T03:47:38.200Z,78.70
2019-06-26T03:50:08.342Z,78.50
2019-06-26T03:52:37.736Z,78.50
2019-06-26T03:55:07.311Z,78.50
2019-06-26T03:57:36.639Z,78.80
2019-06-26T04:00:09.669Z,78.70
2019-06-26T04:02:38.997Z,78.40
2019-06-26T04:05:08.692Z,78.60
2019-06-26T04:07:38.026Z,78.70
2019-06-26T04:10:08.002Z,78.70
2019-06-26T04:12:37.332Z,78.80
2019-06-26T04:15:08.975Z,78.80
2019-06-26T04:17:38.304Z,78.80
2019-06-26T04:20:08.095Z,78.90
2019-06-26T04:22:37.410Z,79.00
2019-06-26T04:25:07.273Z,78.90
2019-06-26T04:27:36.619Z,79.10
2019-06-26T04:30:07.789Z,79.30
2019-06-26T04:32:37.147Z,79.10
2019-06-26T04:35:07.047Z,79.20
2019-06-26T04:37:37.421Z,79.30
2019-06-26T04:40:09.185Z,79.70
2019-06-26T04:42:38.527Z,79.40
2019-06-26T04:45:09.242Z,79.60
2019-06-26T04:47:38.577Z,79.40
2019-06-26T04:50:09.944Z,79.50
2019-06-26T04:52:39.287Z,79.90
2019-06-26T04:55:08.699Z,79.70
2019-06-26T04:57:38.029Z,79.80
2019-06-26T05:00:08.221Z,80.00
2019-06-26T05:02:38.835Z,79.80
2019-06-26T05:05:09.127Z,80.60
2019-06-26T05:07:38.477Z,79.70
2019-06-26T05:10:08.940Z,79.30
2019-06-26T05:12:38.254Z,78.90
2019-06-26T05:15:10.323Z,78.60
2019-06-26T05:17:40.952Z,78.60
2019-06-26T05:20:10.637Z,78.50
2019-06-26T05:22:39.973Z,78.80
2019-06-26T05:25:09.879Z,78.90
2019-06-26T05:27:39.228Z,79.00
2019-06-26T05:30:10.487Z,79.10
2019-06-26T05:32:39.820Z,79.20
2019-06-26T05:35:10.208Z,79.30
2019-06-26T05:37:39.533Z,78.70
2019-06-26T05:40:11.077Z,78.70
2019-06-26T05:42:40.414Z,78.30
2019-06-26T05:45:12.054Z,78.50
2019-06-26T05:47:41.465Z,78.90
2019-06-26T05:50:11.374Z,78.70
2019-06-26T05:52:42.663Z,78.60
2019-06-26T05:55:12.244Z,78.70
2019-06-26T05:57:42.247Z,78.60
2019-06-26T06:00:12.626Z,78.90
2019-06-26T06:02:42.040Z,78.80
2019-06-26T06:05:11.919Z,78.50
2019-06-26T06:07:41.247Z,78.40
2019-06-26T06:10:10.937Z,78.70
2019-06-26T06:12:40.346Z,78.10
2019-06-26T06:15:10.730Z,77.70
2019-06-26T06:17:40.056Z,77.30
2019-06-26T06:20:09.848Z,77.30
2019-06-26T06:22:39.255Z,77.30
2019-06-26T06:25:08.760Z,77.00
2019-06-26T06:27:38.105Z,76.60
2019-06-26T06:30:08.136Z,77.30
2019-06-26T06:32:39.208Z,76.60
2019-06-26T06:35:09.413Z,76.50
2019-06-26T06:37:38.785Z,75.90
2019-06-26T06:40:08.644Z,75.80
2019-06-26T06:42:38.177Z,75.90
2019-06-26T06:45:08.262Z,75.90
2019-06-26T06:47:37.668Z,75.70
2019-06-26T06:50:07.561Z,75.10
2019-06-26T06:52:36.945Z,75.00
2019-06-26T06:55:08.029Z,75.00
2019-06-26T06:57:37.435Z,75.20
2019-06-26T07:00:07.912Z,74.40
2019-06-26T07:02:37.362Z,74.20
2019-06-26T07:05:07.279Z,74.50
2019-06-26T07:07:36.774Z,74.10
2019-06-26T07:10:06.860Z,73.20
2019-06-26T07:12:36.243Z,72.80
2019-06-26T07:15:07.839Z,72.50
2019-06-26T07:17:37.586Z,72.70
2019-06-26T07:20:08.419Z,72.50
2019-06-26T07:22:37.759Z,72.30
2019-06-26T07:25:07.260Z,72.30
2019-06-26T07:27:36.585Z,72.50
2019-06-26T07:30:06.961Z,72.40
2019-06-26T07:32:36.306Z,72.30
2019-06-26T07:35:06.485Z,71.80
2019-06-26T07:37:35.806Z,71.60
2019-06-26T07:40:07.515Z,71.50
2019-06-26T07:42:36.845Z,70.70
2019-06-26T07:45:06.425Z,70.70
2019-06-26T07:47:43.160Z,70.60
2019-06-26T07:50:09.508Z,70.70
2019-06-26T07:52:38.961Z,70.40
2019-06-26T07:55:11.943Z,69.90
2019-06-26T07:57:40.642Z,70.00
2019-06-26T08:00:10.452Z,68.60
2019-06-26T08:02:39.833Z,69.00
2019-06-26T08:05:09.709Z,68.60
2019-06-26T08:07:39.104Z,67.40
2019-06-26T08:10:09.273Z,67.90
2019-06-26T08:12:38.589Z,67.80
2019-06-26T08:15:08.456Z,67.60
2019-06-26T08:17:37.780Z,67.10
2019-06-26T08:20:07.466Z,66.80
2019-06-26T08:22:36.796Z,66.70
2019-06-26T08:25:07.440Z,67.00
2019-06-26T08:27:36.947Z,65.60
2019-06-26T08:30:07.612Z,65.70
2019-06-26T08:32:36.934Z,65.80
2019-06-26T08:35:07.916Z,64.50
2019-06-26T08:37:37.483Z,63.90
2019-06-26T08:40:07.257Z,64.20
2019-06-26T08:42:36.577Z,63.90
2019-06-26T08:45:09.128Z,63.10
2019-06-26T08:47:38.463Z,62.00
2019-06-26T08:50:08.827Z,61.70
2019-06-26T08:52:38.334Z,61.90
2019-06-26T08:55:08.225Z,61.70
2019-06-26T08:57:37.644Z,61.10
2019-06-26T09:00:11.487Z,61.10
2019-06-26T09:02:40.900Z,60.70
2019-06-26T09:05:11.647Z,61.20
2019-06-26T09:07:41.437Z,59.80
2019-06-26T09:10:11.040Z,59.30
2019-06-26T09:12:40.409Z,59.80
2019-06-26T09:15:10.009Z,58.80
2019-06-26T09:17:39.399Z,59.20
2019-06-26T09:20:09.089Z,59.10
2019-06-26T09:22:38.473Z,58.50
2019-06-26T09:25:21.069Z,56.90
2019-06-26T09:27:39.863Z,58.10
2019-06-26T09:30:09.748Z,57.40
2019-06-26T09:32:39.088Z,57.60
2019-06-26T09:35:08.582Z,57.40
2019-06-26T09:37:37.918Z,56.70
2019-06-26T09:40:07.497Z,56.70
2019-06-26T09:42:36.816Z,56.50
2019-06-26T09:45:09.889Z,56.60
2019-06-26T09:47:39.222Z,56.60
2019-06-26T09:50:08.919Z,56.60
2019-06-26T09:52:38.243Z,55.50
2019-06-26T09:55:07.783Z,55.70
2019-06-26T09:57:38.353Z,55.40
2019-06-26T10:00:12.434Z,54.50
2019-06-26T10:02:41.841Z,54.60
2019-06-26T10:05:12.111Z,55.10
2019-06-26T10:07:42.412Z,54.70
2019-06-26T10:10:13.267Z,54.70
2019-06-26T10:12:42.592Z,53.60
2019-06-26T10:15:12.015Z,53.10
2019-06-26T10:17:41.504Z,53.40
2019-06-26T10:20:11.409Z,53.70
2019-06-26T10:22:40.768Z,53.90
2019-06-26T10:25:11.542Z,54.10
2019-06-26T10:27:41.173Z,53.80
2019-06-26T10:30:10.995Z,53.60
2019-06-26T10:32:40.328Z,53.20
2019-06-26T10:35:10.009Z,52.60
2019-06-26T10:37:39.354Z,52.70
2019-06-26T10:40:09.763Z,53.10
2019-06-26T10:42:39.118Z,52.50
2019-06-26T10:45:09.464Z,53.50
2019-06-26T10:47:39.942Z,53.20
2019-06-26T10:50:10.192Z,53.30
2019-06-26T10:52:39.564Z,53.10
2019-06-26T10:55:09.527Z,51.80
2019-06-26T10:57:38.936Z,52.30
2019-06-26T11:00:10.895Z,52.60
2019-06-26T11:02:40.359Z,51.70
2019-06-26T11:05:11.735Z,51.80
2019-06-26T11:07:41.065Z,51.50
2019-06-26T11:10:10.825Z,50.90
2019-06-26T11:12:40.184Z,51.40
2019-06-26T11:15:09.847Z,51.80
2019-06-26T11:17:39.214Z,50.90
2019-06-26T11:20:09.141Z,51.60
2019-06-26T11:22:38.767Z,51.00
2019-06-26T11:25:08.941Z,51.70
2019-06-26T11:27:38.287Z,50.90
2019-06-26T11:30:11.388Z,50.60
2019-06-26T11:32:40.805Z,50.30
2019-06-26T11:35:11.255Z,51.10
2019-06-26T11:37:40.672Z,51.10
2019-06-26T11:40:10.170Z,51.20
2019-06-26T11:42:39.589Z,50.80
2019-06-26T11:45:09.525Z,51.00
2019-06-26T11:47:38.858Z,51.10
2019-06-26T11:50:09.041Z,51.00
2019-06-26T11:52:38.628Z,50.20
2019-06-26T11:55:09.061Z,50.90
2019-06-26T11:57:38.719Z,50.40
2019-06-26T12:00:14.169Z,50.20
2019-06-26T12:02:43.522Z,49.60
2019-06-26T12:05:13.411Z,49.70
2019-06-26T12:07:42.900Z,49.50
2019-06-26T12:10:13.117Z,49.20
2019-06-26T12:12:42.672Z,50.20
2019-06-26T12:15:13.866Z,50.00
2019-06-26T12:17:44.342Z,50.20
2019-06-26T12:20:19.001Z,49.70
2019-06-26T12:22:47.784Z,49.60
2019-06-26T12:25:17.409Z,49.30
2019-06-26T12:27:46.845Z,49.00
2019-06-26T12:30:17.176Z,48.50
2019-06-26T12:33:01.517Z,48.90
2019-06-26T12:35:17.722Z,48.60
2019-06-26T12:37:47.132Z,48.40
2019-06-26T12:40:16.613Z,47.90
2019-06-26T12:42:45.972Z,48.00
2019-06-26T12:45:15.361Z,47.80
2019-06-26T12:47:44.793Z,48.00
2019-06-26T12:50:15.337Z,47.50
2019-06-26T12:52:45.954Z,47.40
2019-06-26T12:55:15.358Z,47.40
2019-06-26T12:57:45.148Z,47.80
2019-06-26T13:00:16.110Z,47.70
2019-06-26T13:02:45.456Z,46.80
2019-06-26T13:05:15.135Z,46.90
2019-06-26T13:07:44.558Z,46.80
2019-06-26T13:10:14.138Z,47.20
2019-06-26T13:12:45.865Z,47.20
2019-06-26T13:15:15.499Z,46.60
2019-06-26T13:17:44.853Z,46.30
2019-06-26T13:20:16.781Z,46.70
2019-06-26T13:22:46.120Z,46.90
2019-06-26T13:25:16.255Z,47.30
2019-06-26T13:27:45.835Z,48.30
2019-06-26T13:30:16.844Z,48.20
2019-06-26T13:32:46.213Z,48.50
2019-06-26T13:35:15.553Z,48.30
2019-06-26T13:37:44.894Z,48.30
2019-06-26T13:40:14.221Z,48.00
2019-06-26T13:42:43.556Z,47.30
2019-06-26T13:45:13.054Z,47.10
2019-06-26T13:47:42.404Z,47.00
2019-06-26T13:50:11.898Z,46.70
2019-06-26T13:52:41.315Z,46.50
2019-06-26T13:55:11.104Z,46.70
2019-06-26T13:57:40.479Z,45.90
2019-06-26T14:00:10.428Z,45.70
2019-06-26T14:02:39.921Z,46.10
2019-06-26T14:05:09.509Z,46.10
2019-06-26T14:07:38.855Z,45.70
2019-06-26T14:10:10.178Z,46.10
2019-06-26T14:12:39.526Z,46.60
2019-06-26T14:15:09.378Z,45.40
2019-06-26T14:17:38.745Z,45.90
2019-06-26T14:20:12.485Z,45.80
2019-06-26T14:22:55.954Z,45.70
2019-06-26T14:25:25.536Z,46.00
2019-06-26T14:27:55.352Z,46.70
2019-06-26T14:30:27.862Z,46.40
2019-06-26T14:33:16.760Z,46.80
2019-06-26T14:35:53.310Z,46.80
2019-06-26T14:38:23.837Z,46.10
2019-06-26T14:40:53.329Z,46.70
2019-06-26T14:43:22.683Z,45.90
2019-06-26T14:45:52.022Z,46.00
2019-06-26T14:48:21.567Z,45.70
2019-06-26T14:50:51.899Z,46.00
2019-06-26T14:53:21.357Z,46.00
2019-06-26T14:55:51.016Z,45.50
2019-06-26T14:58:20.359Z,45.20
2019-06-26T15:00:49.714Z,45.40
2019-06-26T15:03:19.391Z,45.40
2019-06-26T15:05:48.781Z,45.30
2019-06-26T15:08:18.143Z,44.90
2019-06-26T15:10:47.543Z,45.30
2019-06-26T15:13:16.881Z,45.30
2019-06-26T15:15:46.207Z,44.20
2019-06-26T15:18:25.299Z,43.90
2019-06-26T15:20:59.521Z,44.00
2019-06-26T15:23:27.763Z,44.30
2019-06-26T15:25:58.568Z,43.40
2019-06-26T15:28:27.971Z,43.50
2019-06-26T15:30:57.299Z,43.40
2019-06-26T15:33:26.634Z,43.20
2019-06-26T15:35:55.962Z,43.10
2019-06-26T15:38:25.350Z,43.60
2019-06-26T15:40:54.692Z,43.70
2019-06-26T15:43:24.099Z,43.50
2019-06-26T15:45:53.672Z,43.60
2019-06-26T15:52:31.496Z,43.40
2019-06-26T15:55:00.096Z,43.70
2019-06-26T15:57:30.948Z,43.60
2019-06-26T16:00:00.285Z,43.50
2019-06-26T16:02:30.018Z,43.70
2019-06-26T16:04:59.340Z,43.20
2019-06-26T16:07:31.620Z,43.40
2019-06-26T16:10:01.043Z,43.50
2019-06-26T16:12:30.400Z,44.00
2019-06-26T16:14:59.774Z,44.30
2019-06-26T16:17:33.707Z,44.60
2019-06-26T16:20:03.675Z,44.70
2019-06-26T16:22:33.069Z,44.80
2019-06-26T16:25:02.428Z,45.10
2019-06-26T16:27:31.766Z,45.00
2019-06-26T16:30:01.091Z,44.90
2019-06-26T16:32:31.589Z,44.50
2019-06-26T16:35:00.922Z,44.60
2019-06-26T16:37:30.251Z,44.60
2019-06-26T16:39:59.570Z,45.10
2019-06-26T16:42:28.904Z,45.40
2019-06-26T16:44:58.235Z,45.50
2019-06-26T16:47:27.562Z,45.70
2019-06-26T16:49:56.890Z,45.50
2019-06-26T16:52:26.230Z,45.60
2019-06-26T16:54:55.557Z,46.00
2019-06-26T16:57:24.882Z,46.30
2019-06-26T17:00:08.809Z,46.60
2019-06-26T17:02:27.900Z,46.60
2019-06-26T17:04:57.290Z,46.50
2019-06-26T17:07:27.281Z,46.90
2019-06-26T17:09:56.724Z,47.10
2019-06-26T17:12:26.097Z,47.20
2019-06-26T17:14:55.430Z,47.60
2019-06-26T17:17:24.854Z,47.70
2019-06-26T17:19:54.185Z,47.90
2019-06-26T17:22:23.505Z,48.00
2019-06-26T17:24:52.836Z,48.20
2019-06-26T17:27:22.155Z,48.50
2019-06-26T17:29:51.708Z,48.50
2019-06-26T17:32:21.041Z,48.80
2019-06-26T17:34:50.378Z,49.10
2019-06-26T17:37:19.932Z,49.40
2019-06-26T17:39:50.537Z,49.40
2019-06-26T17:42:20.109Z,49.50
2019-06-26T17:44:49.437Z,49.70
2019-06-26T17:47:18.760Z,49.80
2019-06-26T17:49:48.089Z,49.90
2019-06-26T17:52:17.437Z,50.10
2019-06-26T17:54:46.774Z,50.30
2019-06-26T17:57:16.093Z,50.40
2019-06-26T17:59:45.447Z,50.70
2019-06-26T18:02:15.748Z,50.90
2019-06-26T18:04:45.342Z,50.80
2019-06-26T18:07:14.661Z,51.20
2019-06-26T18:09:43.994Z,51.00
2019-06-26T18:12:13.316Z,51.20
2019-06-26T18:14:43.436Z,51.10
2019-06-26T18:17:21.999Z,51.20
2019-06-26T18:19:44.858Z,51.40
2019-06-26T18:22:14.179Z,51.30
2019-06-26T18:24:43.845Z,51.50
2019-06-26T18:27:14.129Z,51.50
2019-06-26T18:29:43.455Z,51.60
2019-06-26T18:32:12.769Z,51.80
2019-06-26T18:34:42.102Z,51.90
2019-06-26T18:37:11.426Z,52.50
2019-06-26T18:39:40.771Z,52.30
2019-06-26T18:42:10.077Z,52.50
2019-06-26T18:44:39.475Z,52.50
2019-06-26T18:47:08.794Z,52.80
2019-06-26T18:49:38.199Z,52.80
2019-06-26T18:52:07.941Z,52.90
2019-06-26T18:54:37.430Z,53.20
2019-06-26T18:57:06.745Z,53.30
2019-06-26T18:59:36.071Z,53.30
2019-06-26T19:02:05.407Z,53.50
2019-06-26T19:04:34.808Z,53.50
2019-06-26T19:07:04.125Z,53.40
2019-06-26T19:09:33.455Z,53.30
2019-06-26T19:12:02.809Z,53.30
2019-06-26T19:14:32.310Z,53.20
2019-06-26T19:17:01.710Z,53.30
2019-06-26T19:19:31.041Z,53.40
2019-06-26T19:22:00.374Z,53.50
2019-06-26T19:24:29.707Z,53.50
2019-06-26T19:26:59.017Z,53.60
2019-06-26T19:29:28.406Z,53.60
2019-06-26T19:31:57.741Z,53.70
2019-06-26T19:34:27.058Z,53.90
2019-06-26T19:36:56.393Z,54.00
2019-06-26T19:39:25.779Z,54.10
2019-06-26T19:41:55.114Z,54.10
2019-06-26T19:44:24.430Z,54.20
2019-06-26T19:46:53.762Z,54.30
2019-06-26T19:49:23.089Z,54.40
2019-06-26T19:51:52.419Z,54.40
2019-06-26T19:54:27.118Z,54.40
2019-06-26T19:56:52.763Z,54.50
2019-06-26T19:59:22.083Z,54.30
2019-06-26T20:01:51.616Z,54.40
2019-06-26T20:04:21.009Z,54.50
2019-06-26T20:06:50.366Z,54.50
2019-06-26T20:09:20.022Z,54.70
2019-06-26T20:11:49.366Z,54.80
2019-06-26T20:14:18.705Z,54.60
2019-06-26T20:16:48.098Z,54.70
2019-06-26T20:19:17.418Z,54.70
2019-06-26T20:21:46.745Z,55.00
2019-06-26T20:24:16.067Z,55.00
2019-06-26T20:26:47.011Z,55.10
2019-06-26T20:29:16.330Z,55.10
2019-06-26T20:31:45.672Z,55.40
2019-06-26T20:34:14.988Z,55.50
2019-06-26T20:36:44.554Z,55.70
2019-06-26T20:39:13.875Z,55.70
2019-06-26T20:41:43.214Z,55.90
2019-06-26T20:44:12.534Z,55.80
2019-06-26T20:46:42.007Z,56.10
2019-06-26T20:49:11.328Z,56.30
2019-06-26T20:51:40.657Z,56.40
2019-06-26T20:54:09.997Z,56.70
2019-06-26T20:56:39.332Z,56.90
2019-06-26T20:59:09.937Z,57.10
2019-06-26T21:01:39.324Z,57.30
2019-06-26T21:04:08.649Z,57.80
2019-06-26T21:06:38.002Z,57.60
2019-06-26T21:09:07.390Z,57.90
2019-06-26T21:11:37.993Z,58.00
2019-06-26T21:14:07.375Z,58.20
2019-06-26T21:16:37.979Z,58.40
2019-06-26T21:19:07.313Z,58.60
2019-06-26T21:21:36.640Z,58.70
2019-06-26T21:24:05.977Z,58.80
2019-06-26T21:26:35.305Z,58.90
2019-06-26T21:29:04.640Z,59.20
2019-06-26T21:31:33.960Z,59.30
2019-06-26T21:34:03.359Z,59.50
2019-06-26T21:36:32.690Z,59.80
2019-06-26T21:39:05.609Z,59.80
2019-06-26T21:41:33.517Z,60.00
2019-06-26T21:44:02.856Z,59.90
2019-06-26T21:46:32.195Z,60.40
2019-06-26T21:49:02.496Z,60.60
2019-06-26T21:51:31.808Z,60.50
2019-06-26T21:54:01.141Z,60.60
2019-06-26T21:56:48.555Z,60.90
2019-06-26T21:59:35.882Z,61.20
2019-06-26T22:02:23.192Z,61.30
2019-06-26T22:04:54.149Z,61.20
2019-06-26T22:07:40.961Z,61.70
2019-06-26T22:10:12.745Z,61.40
2019-06-26T22:12:44.028Z,61.70
2019-06-26T22:15:14.463Z,61.60
2019-06-26T22:17:43.858Z,61.60
2019-06-26T22:20:15.802Z,62.00
2019-06-26T22:22:45.116Z,62.00
2019-06-26T22:25:14.583Z,61.70
2019-06-26T22:27:43.902Z,61.60
2019-06-26T22:30:13.540Z,61.70
2019-06-26T22:32:42.887Z,61.70
2019-06-26T22:35:12.566Z,62.10
2019-06-26T22:37:41.890Z,62.30
2019-06-26T22:40:11.317Z,62.30
2019-06-26T22:42:40.694Z,62.50
2019-06-26T22:45:10.361Z,62.50
2019-06-26T22:47:39.682Z,62.60
2019-06-26T22:50:09.863Z,62.90
2019-06-26T22:52:39.188Z,62.90
2019-06-26T22:55:08.656Z,63.00
2019-06-26T22:57:37.977Z,63.50
2019-06-26T23:00:08.358Z,63.30
2019-06-26T23:02:38.337Z,63.40
2019-06-26T23:05:07.838Z,64.70
2019-06-26T23:07:37.162Z,64.00
2019-06-26T23:10:08.022Z,64.00
2019-06-26T23:12:37.344Z,64.10
2019-06-26T23:15:08.469Z,64.40
2019-06-26T23:17:37.942Z,64.40
2019-06-26T23:20:08.218Z,64.60
2019-06-26T23:22:37.540Z,64.90
2019-06-26T23:25:08.020Z,64.90
2019-06-26T23:27:37.406Z,65.20
2019-06-26T23:30:17.551Z,65.60
2019-06-26T23:32:47.246Z,65.90
2019-06-26T23:35:16.652Z,65.50
2019-06-26T23:37:45.983Z,66.00
2019-06-26T23:40:16.414Z,65.90
2019-06-26T23:42:47.113Z,66.10
2019-06-26T23:45:16.565Z,66.40
2019-06-26T23:47:45.925Z,67.00
2019-06-26T23:50:15.570Z,66.40
2019-06-26T23:52:44.895Z,66.70
2019-06-26T23:55:14.400Z,67.00
2019-06-26T23:57:57.906Z,67.30
